Terminal Aerodrome Forecast
Issued by NWS

Home | Current Version | Previous Version | Text Only | Print | Product List | Glossary On
Versions: 1 2 3 4 5 6 7 8 9 10 11 12 13 14 15 16 17 18 19 20 21 22 23 24 25 26
000
FTUS41 KRLX 060858 AAA
TAFCKB
TAF AMD
KCKB 060858Z 0609/0706 00000KT 6SM SHRA BR OVC070
     FM061100 00000KT 3SM BR OVC030
     FM061400 23004KT 6SM SHRA OVC015
     FM061700 25004KT 3SM SHRA VCTS OVC020CB
     FM062200 22003KT 6SM BR VCTS BKN035CB
     FM070200 VRB03KT 6SM BR BKN025=

USA.gov is the U.S. government's official web portal to all federal, state and local government web resources and services.